This is the latest recevied weather packets stored in our database for station/object W0JRT-6. If no packets are shown the sender has not sent any weather packets the latest 10 day(s).
| Time | Temp. | Humidity | Pressure | Rain* | Wind** | Luminosity | Snow |
|---|---|---|---|---|---|---|---|
| 1777993197 | 9.44° C | 90% | 1010.6 hPa | 4.57 mm | - | - | - |
| 1777992011 | 9.44° C | - | 1010.5 hPa | 4.32 mm | - | - | - |
| 1777991407 | 9.44° C | 90% | 1010.4 hPa | 4.32 mm | - | - | - |
| 1777990797 | 9.44° C | 92% | 1010.5 hPa | 3.81 mm | - | - | - |
| 1777989602 | 8.89° C | 92% | 1010.9 hPa | 3.3 mm | - | - | - |
| 1777988997 | 8.89° C | 93% | 1010.5 hPa | 3.05 mm | - | - | - |
| 1777988406 | 8.89° C | 92% | 1010.8 hPa | 2.79 mm | - | - | - |
| 1777987797 | 8.89° C | 92% | 1010.5 hPa | 2.54 mm | - | - | - |
| 1777987207 | 8.89° C | 92% | 1010.4 hPa | 2.29 mm | - | - | - |
| 1777986606 | 8.89° C | 91% | 1010.6 hPa | 1.78 mm | - | - | - |
| 1777986005 | 9.44° C | 88% | 1010 hPa | 1.52 mm | - | - | - |
| 1777985398 | 9.44° C | 86% | 1009.5 hPa | 1.02 mm | - | - | - |
| 1777984201 | 10° C | 81% | 1008.5 hPa | 0.76 mm | - | - | - |
| 1777983604 | 10° C | 78% | 1008 hPa | 0.76 mm | - | - | - |
| 1777983000 | 10° C | 76% | 1007.9 hPa | 0.76 mm | - | - | - |
| 1777982402 | 10.56° C | 73% | 1007.7 hPa | 0.76 mm | - | - | - |
| 1777981797 | 11.11° C | 67% | 1007.4 hPa | 0.25 mm | - | - | - |
| 1777981208 | 11.67° C | 59% | 1006.9 hPa | 0 mm | - | - | - |
| 1777980001 | 12.22° C | 51% | 1007.3 hPa | 0 mm | - | - | - |
| 1777979399 | 12.22° C | 51% | 1006.4 hPa | 0 mm | - | - | - |
| 1777978802 | 12.78° C | 51% | 1007.2 hPa | 0 mm | - | - | - |
| 1777978207 | 12.78° C | 51% | 1006.6 hPa | 0 mm | - | - | - |
| 1777977604 | 12.78° C | 52% | 1006.2 hPa | 0 mm | - | - | - |
| 1777977005 | 12.78° C | 52% | 1006.1 hPa | 0 mm | - | - | - |
| 1777976398 | 12.78° C | 53% | 1006.2 hPa | 0 mm | - | - | - |
* Rain since midnight (hover to see other rain measurements)
** Current wind speed in m/s (hover to see current wind gust speed)